sensor_id;sensor_type;location;lat;lon;timestamp;P1;durP1;ratioP1;P2;durP2;ratioP2
24389;SDS011;12510;56.468;-3.004;2022-11-15T00:00:18;285.38;;;46.38;;
24389;SDS011;12510;56.468;-3.004;2022-11-15T00:03:03;481.13;;;65.32;;
24389;SDS011;12510;56.468;-3.004;2022-11-15T00:05:48;409.13;;;60.97;;
24389;SDS011;12510;56.468;-3.004;2022-11-15T00:08:33;301.83;;;46.80;;
24389;SDS011;12510;56.468;-3.004;2022-11-15T00:11:18;328.25;;;48.90;;
24389;SDS011;12510;56.468;-3.004;2022-11-15T00:14:03;533.83;;;73.05;;
24389;SDS011;12510;56.468;-3.004;2022-11-15T00:16:48;355.90;;;47.72;;
24389;SDS011;12510;56.468;-3.004;2022-11-15T00:19:33;515.15;;;70.82;;
24389;SDS011;12510;56.468;-3.004;2022-11-15T00:22:19;288.42;;;44.97;;
24389;SDS011;12510;56.468;-3.004;2022-11-15T00:25:04;300.50;;;46.60;;
24389;SDS011;12510;56.468;-3.004;2022-11-15T00:27:49;437.02;;;63.45;;
24389;SDS011;12510;56.468;-3.004;2022-11-15T00:30:36;410.40;;;54.65;;
24389;SDS011;12510;56.468;-3.004;2022-11-15T00:33:21;311.88;;;44.25;;
24389;SDS011;12510;56.468;-3.004;2022-11-15T00:36:07;249.23;;;38.70;;
24389;SDS011;12510;56.468;-3.004;2022-11-15T00:38:53;427.63;;;57.67;;
24389;SDS011;12510;56.468;-3.004;2022-11-15T00:41:38;396.00;;;58.03;;
24389;SDS011;12510;56.468;-3.004;2022-11-15T00:44:23;333.63;;;49.22;;
24389;SDS011;12510;56.468;-3.004;2022-11-15T00:47:08;261.98;;;39.25;;
24389;SDS011;12510;56.468;-3.004;2022-11-15T00:49:53;308.95;;;47.10;;
24389;SDS011;12510;56.468;-3.004;2022-11-15T00:52:38;435.92;;;61.88;;
24389;SDS011;12510;56.468;-3.004;2022-11-15T00:55:23;641.53;;;96.22;;
24389;SDS011;12510;56.468;-3.004;2022-11-15T00:58:08;546.95;;;76.32;;
24389;SDS011;12510;56.468;-3.004;2022-11-15T01:00:54;385.17;;;55.97;;
24389;SDS011;12510;56.468;-3.004;2022-11-15T01:03:39;205.95;;;34.78;;
24389;SDS011;12510;56.468;-3.004;2022-11-15T01:06:25;536.58;;;66.35;;
24389;SDS011;12510;56.468;-3.004;2022-11-15T01:09:10;270.75;;;41.70;;
24389;SDS011;12510;56.468;-3.004;2022-11-15T01:11:55;403.15;;;58.28;;
24389;SDS011;12510;56.468;-3.004;2022-11-15T01:14:40;293.85;;;45.08;;
24389;SDS011;12510;56.468;-3.004;2022-11-15T01:17:25;415.23;;;57.80;;
24389;SDS011;12510;56.468;-3.004;2022-11-15T01:20:10;151.20;;;28.65;;
24389;SDS011;12510;56.468;-3.004;2022-11-15T01:22:55;77.40;;;20.48;;
24389;SDS011;12510;56.468;-3.004;2022-11-15T01:25:40;84.90;;;21.70;;
24389;SDS011;12510;56.468;-3.004;2022-11-15T01:28:28;94.95;;;21.42;;
24389;SDS011;12510;56.468;-3.004;2022-11-15T01:31:16;57.42;;;23.13;;
24389;SDS011;12510;56.468;-3.004;2022-11-15T01:34:02;64.38;;;18.48;;
24389;SDS011;12510;56.468;-3.004;2022-11-15T01:36:47;39.30;;;17.55;;
24389;SDS011;12510;56.468;-3.004;2022-11-15T01:39:32;56.67;;;19.63;;
24389;SDS011;12510;56.468;-3.004;2022-11-15T01:42:17;76.72;;;19.40;;
24389;SDS011;12510;56.468;-3.004;2022-11-15T01:45:03;40.40;;;18.60;;
24389;SDS011;12510;56.468;-3.004;2022-11-15T01:47:49;28.45;;;16.50;;
24389;SDS011;12510;56.468;-3.004;2022-11-15T01:50:38;48.28;;;20.20;;
24389;SDS011;12510;56.468;-3.004;2022-11-15T01:53:23;79.95;;;22.30;;
24389;SDS011;12510;56.468;-3.004;2022-11-15T01:56:14;161.15;;;28.25;;
24389;SDS011;12510;56.468;-3.004;2022-11-15T01:59:05;107.22;;;24.67;;
24389;SDS011;12510;56.468;-3.004;2022-11-15T02:01:52;57.50;;;19.25;;
24389;SDS011;12510;56.468;-3.004;2022-11-15T02:04:40;33.33;;;16.95;;
24389;SDS011;12510;56.468;-3.004;2022-11-15T02:07:27;22.67;;;17.63;;
24389;SDS011;12510;56.468;-3.004;2022-11-15T02:10:17;26.95;;;17.45;;
24389;SDS011;12510;56.468;-3.004;2022-11-15T02:13:04;21.90;;;17.35;;
24389;SDS011;12510;56.468;-3.004;2022-11-15T02:15:52;20.13;;;16.50;;
24389;SDS011;12510;56.468;-3.004;2022-11-15T02:19:09;18.65;;;14.95;;
24389;SDS011;12510;56.468;-3.004;2022-11-15T02:31:04;17.88;;;13.95;;
24389;SDS011;12510;56.468;-3.004;2022-11-15T02:37:17;20.77;;;14.07;;
24389;SDS011;12510;56.468;-3.004;2022-11-15T02:40:27;17.48;;;14.43;;
24389;SDS011;12510;56.468;-3.004;2022-11-15T02:43:18;19.60;;;13.95;;
24389;SDS011;12510;56.468;-3.004;2022-11-15T02:46:40;15.45;;;13.38;;
24389;SDS011;12510;56.468;-3.004;2022-11-15T02:49:50;17.23;;;13.35;;
24389;SDS011;12510;56.468;-3.004;2022-11-15T02:52:37;16.75;;;14.13;;
24389;SDS011;12510;56.468;-3.004;2022-11-15T03:10:26;17.23;;;14.55;;
24389;SDS011;12510;56.468;-3.004;2022-11-15T03:16:36;17.63;;;14.02;;
24389;SDS011;12510;56.468;-3.004;2022-11-15T03:19:27;19.35;;;15.25;;
24389;SDS011;12510;56.468;-3.004;2022-11-15T03:22:21;21.42;;;16.45;;
24389;SDS011;12510;56.468;-3.004;2022-11-15T03:25:09;19.98;;;16.80;;
24389;SDS011;12510;56.468;-3.004;2022-11-15T03:28:01;19.50;;;17.45;;
24389;SDS011;12510;56.468;-3.004;2022-11-15T03:30:49;20.88;;;16.02;;
24389;SDS011;12510;56.468;-3.004;2022-11-15T03:33:38;20.20;;;17.17;;
24389;SDS011;12510;56.468;-3.004;2022-11-15T03:36:23;22.45;;;17.38;;
24389;SDS011;12510;56.468;-3.004;2022-11-15T03:39:10;22.92;;;15.52;;
24389;SDS011;12510;56.468;-3.004;2022-11-15T03:42:08;18.90;;;15.32;;
24389;SDS011;12510;56.468;-3.004;2022-11-15T03:45:08;19.15;;;16.80;;
24389;SDS011;12510;56.468;-3.004;2022-11-15T03:48:01;18.58;;;15.90;;
24389;SDS011;12510;56.468;-3.004;2022-11-15T03:50:51;22.35;;;18.25;;
24389;SDS011;12510;56.468;-3.004;2022-11-15T03:53:37;35.10;;;24.25;;
24389;SDS011;12510;56.468;-3.004;2022-11-15T03:56:22;18.38;;;16.13;;
24389;SDS011;12510;56.468;-3.004;2022-11-15T03:59:07;20.17;;;16.73;;
24389;SDS011;12510;56.468;-3.004;2022-11-15T04:01:52;19.42;;;16.35;;
24389;SDS011;12510;56.468;-3.004;2022-11-15T04:04:37;20.75;;;16.50;;
24389;SDS011;12510;56.468;-3.004;2022-11-15T04:07:21;24.50;;;21.15;;
24389;SDS011;12510;56.468;-3.004;2022-11-15T04:10:07;28.45;;;20.50;;
24389;SDS011;12510;56.468;-3.004;2022-11-15T04:12:55;26.98;;;20.67;;
24389;SDS011;12510;56.468;-3.004;2022-11-15T04:15:39;28.60;;;22.98;;
24389;SDS011;12510;56.468;-3.004;2022-11-15T04:18:24;29.10;;;24.00;;
24389;SDS011;12510;56.468;-3.004;2022-11-15T04:21:09;53.42;;;34.30;;
24389;SDS011;12510;56.468;-3.004;2022-11-15T04:24:13;30.35;;;22.17;;
24389;SDS011;12510;56.468;-3.004;2022-11-15T04:26:59;37.05;;;28.25;;
24389;SDS011;12510;56.468;-3.004;2022-11-15T04:29:44;37.30;;;26.13;;
24389;SDS011;12510;56.468;-3.004;2022-11-15T04:32:29;84.95;;;45.28;;
24389;SDS011;12510;56.468;-3.004;2022-11-15T04:35:14;34.03;;;24.17;;
24389;SDS011;12510;56.468;-3.004;2022-11-15T04:37:59;38.97;;;24.27;;
24389;SDS011;12510;56.468;-3.004;2022-11-15T04:40:45;39.10;;;27.67;;
24389;SDS011;12510;56.468;-3.004;2022-11-15T04:43:31;43.00;;;24.15;;
24389;SDS011;12510;56.468;-3.004;2022-11-15T04:46:16;46.78;;;27.55;;
24389;SDS011;12510;56.468;-3.004;2022-11-15T04:49:00;40.63;;;22.63;;
24389;SDS011;12510;56.468;-3.004;2022-11-15T04:51:45;49.67;;;24.73;;
24389;SDS011;12510;56.468;-3.004;2022-11-15T04:54:30;67.88;;;25.80;;
24389;SDS011;12510;56.468;-3.004;2022-11-15T04:57:16;41.40;;;24.35;;
24389;SDS011;12510;56.468;-3.004;2022-11-15T05:00:02;46.83;;;23.90;;
24389;SDS011;12510;56.468;-3.004;2022-11-15T05:02:49;40.33;;;26.88;;
24389;SDS011;12510;56.468;-3.004;2022-11-15T05:05:53;35.78;;;24.05;;
24389;SDS011;12510;56.468;-3.004;2022-11-15T05:08:38;48.30;;;22.88;;
24389;SDS011;12510;56.468;-3.004;2022-11-15T05:11:23;44.35;;;23.25;;
24389;SDS011;12510;56.468;-3.004;2022-11-15T05:14:08;65.68;;;31.38;;
24389;SDS011;12510;56.468;-3.004;2022-11-15T05:16:53;41.60;;;24.27;;
24389;SDS011;12510;56.468;-3.004;2022-11-15T05:19:38;35.88;;;20.27;;
24389;SDS011;12510;56.468;-3.004;2022-11-15T05:22:24;39.72;;;21.13;;
24389;SDS011;12510;56.468;-3.004;2022-11-15T05:25:09;42.63;;;22.52;;
24389;SDS011;12510;56.468;-3.004;2022-11-15T05:27:54;38.35;;;24.30;;
24389;SDS011;12510;56.468;-3.004;2022-11-15T05:30:39;54.50;;;34.88;;
24389;SDS011;12510;56.468;-3.004;2022-11-15T05:33:24;35.08;;;22.73;;
24389;SDS011;12510;56.468;-3.004;2022-11-15T05:39:15;37.55;;;23.08;;
24389;SDS011;12510;56.468;-3.004;2022-11-15T05:42:09;26.65;;;18.10;;
24389;SDS011;12510;56.468;-3.004;2022-11-15T05:44:56;19.10;;;15.77;;
24389;SDS011;12510;56.468;-3.004;2022-11-15T05:47:43;21.40;;;19.30;;
24389;SDS011;12510;56.468;-3.004;2022-11-15T05:50:29;45.65;;;27.35;;
24389;SDS011;12510;56.468;-3.004;2022-11-15T05:53:15;23.83;;;19.42;;
24389;SDS011;12510;56.468;-3.004;2022-11-15T05:56:03;22.98;;;18.33;;
24389;SDS011;12510;56.468;-3.004;2022-11-15T05:58:51;39.50;;;23.25;;
24389;SDS011;12510;56.468;-3.004;2022-11-15T06:01:38;34.45;;;20.40;;
24389;SDS011;12510;56.468;-3.004;2022-11-15T06:04:24;20.15;;;17.58;;
24389;SDS011;12510;56.468;-3.004;2022-11-15T06:07:09;17.15;;;14.45;;
24389;SDS011;12510;56.468;-3.004;2022-11-15T06:09:54;15.88;;;12.93;;
24389;SDS011;12510;56.468;-3.004;2022-11-15T06:12:39;15.57;;;14.00;;
24389;SDS011;12510;56.468;-3.004;2022-11-15T06:15:24;27.98;;;16.58;;
24389;SDS011;12510;56.468;-3.004;2022-11-15T06:18:09;14.18;;;12.45;;
24389;SDS011;12510;56.468;-3.004;2022-11-15T06:20:57;35.72;;;20.63;;
24389;SDS011;12510;56.468;-3.004;2022-11-15T06:23:43;11.77;;;10.68;;
24389;SDS011;12510;56.468;-3.004;2022-11-15T06:26:28;11.32;;;9.63;;
24389;SDS011;12510;56.468;-3.004;2022-11-15T06:29:13;22.58;;;16.23;;
24389;SDS011;12510;56.468;-3.004;2022-11-15T06:31:58;11.65;;;10.55;;
24389;SDS011;12510;56.468;-3.004;2022-11-15T06:34:43;11.80;;;10.55;;
24389;SDS011;12510;56.468;-3.004;2022-11-15T06:37:28;11.50;;;10.27;;
24389;SDS011;12510;56.468;-3.004;2022-11-15T06:40:13;15.77;;;14.18;;
24389;SDS011;12510;56.468;-3.004;2022-11-15T06:42:58;13.70;;;12.35;;
24389;SDS011;12510;56.468;-3.004;2022-11-15T06:45:44;13.10;;;11.90;;
24389;SDS011;12510;56.468;-3.004;2022-11-15T06:48:29;21.33;;;19.10;;
24389;SDS011;12510;56.468;-3.004;2022-11-15T06:51:15;23.08;;;20.25;;
24389;SDS011;12510;56.468;-3.004;2022-11-15T06:54:00;27.42;;;22.45;;
24389;SDS011;12510;56.468;-3.004;2022-11-15T06:56:45;29.40;;;18.55;;
24389;SDS011;12510;56.468;-3.004;2022-11-15T06:59:30;18.77;;;16.77;;
24389;SDS011;12510;56.468;-3.004;2022-11-15T07:02:15;16.33;;;14.13;;
24389;SDS011;12510;56.468;-3.004;2022-11-15T07:05:00;19.05;;;15.75;;
24389;SDS011;12510;56.468;-3.004;2022-11-15T07:07:50;36.35;;;31.63;;
24389;SDS011;12510;56.468;-3.004;2022-11-15T07:10:35;13.05;;;11.50;;
24389;SDS011;12510;56.468;-3.004;2022-11-15T07:13:23;15.15;;;13.65;;
24389;SDS011;12510;56.468;-3.004;2022-11-15T07:16:10;10.85;;;9.73;;
24389;SDS011;12510;56.468;-3.004;2022-11-15T07:18:55;33.55;;;22.02;;
24389;SDS011;12510;56.468;-3.004;2022-11-15T07:21:41;66.57;;;33.47;;
24389;SDS011;12510;56.468;-3.004;2022-11-15T07:24:26;12.23;;;9.48;;
24389;SDS011;12510;56.468;-3.004;2022-11-15T07:27:11;9.20;;;8.38;;
24389;SDS011;12510;56.468;-3.004;2022-11-15T07:29:56;12.05;;;10.80;;
24389;SDS011;12510;56.468;-3.004;2022-11-15T07:32:41;22.02;;;19.60;;
24389;SDS011;12510;56.468;-3.004;2022-11-15T07:35:26;19.63;;;13.27;;
24389;SDS011;12510;56.468;-3.004;2022-11-15T07:38:12;11.93;;;9.52;;
24389;SDS011;12510;56.468;-3.004;2022-11-15T07:40:57;53.47;;;35.05;;
24389;SDS011;12510;56.468;-3.004;2022-11-15T07:43:43;9.32;;;7.13;;
24389;SDS011;12510;56.468;-3.004;2022-11-15T07:46:28;10.48;;;8.52;;
24389;SDS011;12510;56.468;-3.004;2022-11-15T07:49:14;9.70;;;7.95;;
24389;SDS011;12510;56.468;-3.004;2022-11-15T07:51:58;8.68;;;7.80;;
24389;SDS011;12510;56.468;-3.004;2022-11-15T07:54:44;11.25;;;8.95;;
24389;SDS011;12510;56.468;-3.004;2022-11-15T07:57:29;9.98;;;7.28;;
24389;SDS011;12510;56.468;-3.004;2022-11-15T08:00:14;11.27;;;8.43;;
24389;SDS011;12510;56.468;-3.004;2022-11-15T08:03:03;14.43;;;11.85;;
24389;SDS011;12510;56.468;-3.004;2022-11-15T08:05:51;9.73;;;6.60;;
24389;SDS011;12510;56.468;-3.004;2022-11-15T08:08:36;9.88;;;7.22;;
24389;SDS011;12510;56.468;-3.004;2022-11-15T08:11:21;14.82;;;11.25;;
24389;SDS011;12510;56.468;-3.004;2022-11-15T08:14:06;17.42;;;11.00;;
24389;SDS011;12510;56.468;-3.004;2022-11-15T08:16:51;10.57;;;6.47;;
24389;SDS011;12510;56.468;-3.004;2022-11-15T08:19:37;9.00;;;6.57;;
24389;SDS011;12510;56.468;-3.004;2022-11-15T08:22:22;72.72;;;30.42;;
24389;SDS011;12510;56.468;-3.004;2022-11-15T08:25:07;48.50;;;30.45;;
24389;SDS011;12510;56.468;-3.004;2022-11-15T08:27:53;76.53;;;40.45;;
24389;SDS011;12510;56.468;-3.004;2022-11-15T08:30:38;22.98;;;11.05;;
24389;SDS011;12510;56.468;-3.004;2022-11-15T08:33:26;13.88;;;8.70;;
24389;SDS011;12510;56.468;-3.004;2022-11-15T08:36:13;32.42;;;19.95;;
24389;SDS011;12510;56.468;-3.004;2022-11-15T08:39:00;19.52;;;10.73;;
24389;SDS011;12510;56.468;-3.004;2022-11-15T08:41:44;37.67;;;23.05;;
24389;SDS011;12510;56.468;-3.004;2022-11-15T08:44:29;10.15;;;8.40;;
24389;SDS011;12510;56.468;-3.004;2022-11-15T08:47:14;35.83;;;26.25;;
24389;SDS011;12510;56.468;-3.004;2022-11-15T08:49:59;11.25;;;8.88;;
24389;SDS011;12510;56.468;-3.004;2022-11-15T08:52:44;9.88;;;7.50;;
24389;SDS011;12510;56.468;-3.004;2022-11-15T08:55:29;11.68;;;7.95;;
24389;SDS011;12510;56.468;-3.004;2022-11-15T08:58:14;10.73;;;7.38;;
24389;SDS011;12510;56.468;-3.004;2022-11-15T09:00:59;38.80;;;33.60;;
24389;SDS011;12510;56.468;-3.004;2022-11-15T09:03:44;17.05;;;9.30;;
24389;SDS011;12510;56.468;-3.004;2022-11-15T09:06:29;20.45;;;9.05;;
24389;SDS011;12510;56.468;-3.004;2022-11-15T09:09:15;11.30;;;8.15;;
24389;SDS011;12510;56.468;-3.004;2022-11-15T09:12:00;28.23;;;16.48;;
24389;SDS011;12510;56.468;-3.004;2022-11-15T09:14:45;21.85;;;18.77;;
24389;SDS011;12510;56.468;-3.004;2022-11-15T09:17:30;9.18;;;7.32;;
24389;SDS011;12510;56.468;-3.004;2022-11-15T09:20:15;12.70;;;7.85;;
24389;SDS011;12510;56.468;-3.004;2022-11-15T09:23:00;9.88;;;5.88;;
24389;SDS011;12510;56.468;-3.004;2022-11-15T09:25:46;10.23;;;8.07;;
24389;SDS011;12510;56.468;-3.004;2022-11-15T09:28:31;13.50;;;9.27;;
24389;SDS011;12510;56.468;-3.004;2022-11-15T09:31:18;10.32;;;6.18;;
24389;SDS011;12510;56.468;-3.004;2022-11-15T09:34:03;13.77;;;10.32;;
24389;SDS011;12510;56.468;-3.004;2022-11-15T09:36:48;10.85;;;6.30;;
24389;SDS011;12510;56.468;-3.004;2022-11-15T09:39:33;15.05;;;6.32;;
24389;SDS011;12510;56.468;-3.004;2022-11-15T09:51:36;17.40;;;5.30;;
24389;SDS011;12510;56.468;-3.004;2022-11-15T09:56:53;9.35;;;5.45;;
24389;SDS011;12510;56.468;-3.004;2022-11-15T10:04:42;13.93;;;5.38;;
24389;SDS011;12510;56.468;-3.004;2022-11-15T10:10:31;149.93;;;66.30;;
24389;SDS011;12510;56.468;-3.004;2022-11-15T10:13:01;28.02;;;8.80;;
24389;SDS011;12510;56.468;-3.004;2022-11-15T10:15:27;8.75;;;4.30;;
24389;SDS011;12510;56.468;-3.004;2022-11-15T10:20:29;23.98;;;19.50;;
24389;SDS011;12510;56.468;-3.004;2022-11-15T10:22:59;54.25;;;34.08;;
24389;SDS011;12510;56.468;-3.004;2022-11-15T10:25:28;6.88;;;3.97;;
24389;SDS011;12510;56.468;-3.004;2022-11-15T10:28:38;12.18;;;5.50;;
24389;SDS011;12510;56.468;-3.004;2022-11-15T10:30:54;7.53;;;3.60;;
24389;SDS011;12510;56.468;-3.004;2022-11-15T10:41:35;10.93;;;4.35;;
24389;SDS011;12510;56.468;-3.004;2022-11-15T10:46:44;13.63;;;6.90;;
24389;SDS011;12510;56.468;-3.004;2022-11-15T10:49:18;24.75;;;11.55;;
24389;SDS011;12510;56.468;-3.004;2022-11-15T10:54:23;52.03;;;29.45;;
24389;SDS011;12510;56.468;-3.004;2022-11-15T10:56:58;17.30;;;11.48;;
24389;SDS011;12510;56.468;-3.004;2022-11-15T10:59:27;9.50;;;4.63;;
24389;SDS011;12510;56.468;-3.004;2022-11-15T11:01:57;18.67;;;10.43;;
24389;SDS011;12510;56.468;-3.004;2022-11-15T11:04:23;11.88;;;4.60;;
24389;SDS011;12510;56.468;-3.004;2022-11-15T11:09:32;15.00;;;7.43;;
24389;SDS011;12510;56.468;-3.004;2022-11-15T11:12:00;12.52;;;4.80;;
24389;SDS011;12510;56.468;-3.004;2022-11-15T11:14:29;36.97;;;21.55;;
24389;SDS011;12510;56.468;-3.004;2022-11-15T11:23:12;11.45;;;5.93;;
24389;SDS011;12510;56.468;-3.004;2022-11-15T11:28:45;17.50;;;6.53;;
24389;SDS011;12510;56.468;-3.004;2022-11-15T11:31:36;77.82;;;37.72;;
24389;SDS011;12510;56.468;-3.004;2022-11-15T11:43:13;15.95;;;5.63;;
24389;SDS011;12510;56.468;-3.004;2022-11-15T11:47:40;17.42;;;8.80;;
24389;SDS011;12510;56.468;-3.004;2022-11-15T11:50:18;20.48;;;9.48;;
24389;SDS011;12510;56.468;-3.004;2022-11-15T11:55:41;19.33;;;4.70;;
24389;SDS011;12510;56.468;-3.004;2022-11-15T12:00:51;22.13;;;12.13;;
24389;SDS011;12510;56.468;-3.004;2022-11-15T12:03:25;13.45;;;5.10;;
24389;SDS011;12510;56.468;-3.004;2022-11-15T12:06:01;13.40;;;5.18;;
24389;SDS011;12510;56.468;-3.004;2022-11-15T12:13:40;10.00;;;6.47;;
24389;SDS011;12510;56.468;-3.004;2022-11-15T12:16:15;25.85;;;11.60;;
24389;SDS011;12510;56.468;-3.004;2022-11-15T12:19:03;48.30;;;19.38;;
24389;SDS011;12510;56.468;-3.004;2022-11-15T12:24:22;10.23;;;4.57;;
24389;SDS011;12510;56.468;-3.004;2022-11-15T12:29:33;18.27;;;7.82;;
24389;SDS011;12510;56.468;-3.004;2022-11-15T12:32:04;17.52;;;5.20;;
24389;SDS011;12510;56.468;-3.004;2022-11-15T12:34:42;14.00;;;6.93;;
24389;SDS011;12510;56.468;-3.004;2022-11-15T12:42:58;13.52;;;12.30;;
24389;SDS011;12510;56.468;-3.004;2022-11-15T12:45:31;12.77;;;5.05;;
24389;SDS011;12510;56.468;-3.004;2022-11-15T12:58:45;23.30;;;12.65;;
24389;SDS011;12510;56.468;-3.004;2022-11-15T13:06:49;12.75;;;5.47;;
24389;SDS011;12510;56.468;-3.004;2022-11-15T13:11:56;9.68;;;3.35;;
24389;SDS011;12510;56.468;-3.004;2022-11-15T13:17:12;12.07;;;3.45;;
24389;SDS011;12510;56.468;-3.004;2022-11-15T13:19:42;16.25;;;11.48;;
24389;SDS011;12510;56.468;-3.004;2022-11-15T13:22:11;9.07;;;2.78;;
24389;SDS011;12510;56.468;-3.004;2022-11-15T13:24:56;7.18;;;3.65;;
24389;SDS011;12510;56.468;-3.004;2022-11-15T13:27:23;18.55;;;9.05;;
24389;SDS011;12510;56.468;-3.004;2022-11-15T13:29:50;8.40;;;2.97;;
24389;SDS011;12510;56.468;-3.004;2022-11-15T13:32:18;17.30;;;9.32;;
24389;SDS011;12510;56.468;-3.004;2022-11-15T13:34:47;16.50;;;4.88;;
24389;SDS011;12510;56.468;-3.004;2022-11-15T13:39:48;9.90;;;4.32;;
24389;SDS011;12510;56.468;-3.004;2022-11-15T13:42:19;8.05;;;3.13;;
24389;SDS011;12510;56.468;-3.004;2022-11-15T13:44:57;10.77;;;7.00;;
24389;SDS011;12510;56.468;-3.004;2022-11-15T13:47:26;8.48;;;3.50;;
24389;SDS011;12510;56.468;-3.004;2022-11-15T13:49:54;9.82;;;5.05;;
24389;SDS011;12510;56.468;-3.004;2022-11-15T13:52:22;11.00;;;3.67;;
24389;SDS011;12510;56.468;-3.004;2022-11-15T13:57:21;10.15;;;4.50;;
24389;SDS011;12510;56.468;-3.004;2022-11-15T13:59:51;9.68;;;3.58;;
24389;SDS011;12510;56.468;-3.004;2022-11-15T14:02:41;8.48;;;2.88;;
24389;SDS011;12510;56.468;-3.004;2022-11-15T14:05:14;11.65;;;5.00;;
24389;SDS011;12510;56.468;-3.004;2022-11-15T14:08:00;6.65;;;3.28;;
24389;SDS011;12510;56.468;-3.004;2022-11-15T14:10:31;8.98;;;4.18;;
24389;SDS011;12510;56.468;-3.004;2022-11-15T14:13:02;9.55;;;2.72;;
24389;SDS011;12510;56.468;-3.004;2022-11-15T14:15:31;6.65;;;2.78;;
24389;SDS011;12510;56.468;-3.004;2022-11-15T14:18:02;8.25;;;3.72;;
24389;SDS011;12510;56.468;-3.004;2022-11-15T14:23:02;9.88;;;2.58;;
24389;SDS011;12510;56.468;-3.004;2022-11-15T14:25:32;12.02;;;3.65;;
24389;SDS011;12510;56.468;-3.004;2022-11-15T14:28:16;10.25;;;2.95;;
24389;SDS011;12510;56.468;-3.004;2022-11-15T14:30:48;8.57;;;3.08;;
24389;SDS011;12510;56.468;-3.004;2022-11-15T14:33:24;6.15;;;2.50;;
24389;SDS011;12510;56.468;-3.004;2022-11-15T14:35:58;8.50;;;2.67;;
24389;SDS011;12510;56.468;-3.004;2022-11-15T14:38:42;9.27;;;3.28;;
24389;SDS011;12510;56.468;-3.004;2022-11-15T14:41:19;15.48;;;13.63;;
24389;SDS011;12510;56.468;-3.004;2022-11-15T14:43:50;14.68;;;5.00;;
24389;SDS011;12510;56.468;-3.004;2022-11-15T14:46:17;6.30;;;5.75;;
24389;SDS011;12510;56.468;-3.004;2022-11-15T14:48:44;6.00;;;2.75;;
24389;SDS011;12510;56.468;-3.004;2022-11-15T14:51:11;4.22;;;1.92;;
24389;SDS011;12510;56.468;-3.004;2022-11-15T14:53:40;11.00;;;2.80;;
24389;SDS011;12510;56.468;-3.004;2022-11-15T14:56:07;5.28;;;2.03;;
24389;SDS011;12510;56.468;-3.004;2022-11-15T14:58:34;8.35;;;4.32;;
24389;SDS011;12510;56.468;-3.004;2022-11-15T15:01:17;5.25;;;1.70;;
24389;SDS011;12510;56.468;-3.004;2022-11-15T15:03:47;3.25;;;1.38;;
24389;SDS011;12510;56.468;-3.004;2022-11-15T15:06:14;4.30;;;1.73;;
24389;SDS011;12510;56.468;-3.004;2022-11-15T15:08:40;5.93;;;1.58;;
24389;SDS011;12510;56.468;-3.004;2022-11-15T15:11:10;2.90;;;1.95;;
24389;SDS011;12510;56.468;-3.004;2022-11-15T15:13:47;3.03;;;1.55;;
24389;SDS011;12510;56.468;-3.004;2022-11-15T15:16:14;1.85;;;1.42;;
24389;SDS011;12510;56.468;-3.004;2022-11-15T15:18:40;3.45;;;1.42;;
24389;SDS011;12510;56.468;-3.004;2022-11-15T15:21:25;3.97;;;1.70;;
24389;SDS011;12510;56.468;-3.004;2022-11-15T15:23:53;3.92;;;1.48;;
24389;SDS011;12510;56.468;-3.004;2022-11-15T15:26:20;8.95;;;2.20;;
24389;SDS011;12510;56.468;-3.004;2022-11-15T15:28:48;4.00;;;1.88;;
24389;SDS011;12510;56.468;-3.004;2022-11-15T15:31:17;5.93;;;1.90;;
24389;SDS011;12510;56.468;-3.004;2022-11-15T15:33:43;6.55;;;5.03;;
24389;SDS011;12510;56.468;-3.004;2022-11-15T15:36:11;8.50;;;2.22;;
24389;SDS011;12510;56.468;-3.004;2022-11-15T15:38:39;6.07;;;2.10;;
24389;SDS011;12510;56.468;-3.004;2022-11-15T15:41:12;5.65;;;2.75;;
24389;SDS011;12510;56.468;-3.004;2022-11-15T15:43:39;5.18;;;1.63;;
24389;SDS011;12510;56.468;-3.004;2022-11-15T15:46:16;3.38;;;2.15;;
24389;SDS011;12510;56.468;-3.004;2022-11-15T15:48:44;6.38;;;1.98;;
24389;SDS011;12510;56.468;-3.004;2022-11-15T15:51:11;4.90;;;2.72;;
24389;SDS011;12510;56.468;-3.004;2022-11-15T15:53:38;4.25;;;1.88;;
24389;SDS011;12510;56.468;-3.004;2022-11-15T15:56:05;6.78;;;1.95;;
24389;SDS011;12510;56.468;-3.004;2022-11-15T15:58:34;3.20;;;1.92;;
24389;SDS011;12510;56.468;-3.004;2022-11-15T16:01:00;4.05;;;1.45;;
24389;SDS011;12510;56.468;-3.004;2022-11-15T16:03:27;5.00;;;2.08;;
24389;SDS011;12510;56.468;-3.004;2022-11-15T16:05:53;2.90;;;1.90;;
24389;SDS011;12510;56.468;-3.004;2022-11-15T16:08:21;1.75;;;1.10;;
24389;SDS011;12510;56.468;-3.004;2022-11-15T16:10:49;2.35;;;1.45;;
24389;SDS011;12510;56.468;-3.004;2022-11-15T16:13:16;2.63;;;1.20;;
24389;SDS011;12510;56.468;-3.004;2022-11-15T16:15:43;2.47;;;1.00;;
24389;SDS011;12510;56.468;-3.004;2022-11-15T16:18:17;4.00;;;1.38;;
24389;SDS011;12510;56.468;-3.004;2022-11-15T16:20:45;4.35;;;3.35;;
24389;SDS011;12510;56.468;-3.004;2022-11-15T16:23:22;4.60;;;1.48;;
24389;SDS011;12510;56.468;-3.004;2022-11-15T16:25:51;3.55;;;1.95;;
24389;SDS011;12510;56.468;-3.004;2022-11-15T16:28:25;2.33;;;1.10;;
24389;SDS011;12510;56.468;-3.004;2022-11-15T16:31:03;5.07;;;2.75;;
24389;SDS011;12510;56.468;-3.004;2022-11-15T16:33:29;3.15;;;2.03;;
24389;SDS011;12510;56.468;-3.004;2022-11-15T16:35:56;2.03;;;1.52;;
24389;SDS011;12510;56.468;-3.004;2022-11-15T16:38:22;3.33;;;1.98;;
24389;SDS011;12510;56.468;-3.004;2022-11-15T16:40:49;2.17;;;2.00;;
24389;SDS011;12510;56.468;-3.004;2022-11-15T16:43:15;2.58;;;1.65;;
24389;SDS011;12510;56.468;-3.004;2022-11-15T16:45:42;1.90;;;1.25;;
24389;SDS011;12510;56.468;-3.004;2022-11-15T16:48:15;1.80;;;1.15;;
24389;SDS011;12510;56.468;-3.004;2022-11-15T16:50:50;4.60;;;2.03;;
24389;SDS011;12510;56.468;-3.004;2022-11-15T16:53:19;1.63;;;1.45;;
24389;SDS011;12510;56.468;-3.004;2022-11-15T16:55:46;2.28;;;1.77;;
24389;SDS011;12510;56.468;-3.004;2022-11-15T16:58:12;1.98;;;1.80;;
24389;SDS011;12510;56.468;-3.004;2022-11-15T17:00:38;2.75;;;1.95;;
24389;SDS011;12510;56.468;-3.004;2022-11-15T17:03:05;3.60;;;3.30;;
24389;SDS011;12510;56.468;-3.004;2022-11-15T17:05:32;3.33;;;2.30;;
24389;SDS011;12510;56.468;-3.004;2022-11-15T17:07:58;2.58;;;1.80;;
24389;SDS011;12510;56.468;-3.004;2022-11-15T17:10:25;2.50;;;1.50;;
24389;SDS011;12510;56.468;-3.004;2022-11-15T17:12:53;3.05;;;2.17;;
24389;SDS011;12510;56.468;-3.004;2022-11-15T17:15:20;1.40;;;1.30;;
24389;SDS011;12510;56.468;-3.004;2022-11-15T17:17:52;2.22;;;1.52;;
24389;SDS011;12510;56.468;-3.004;2022-11-15T17:20:20;1.88;;;1.40;;
24389;SDS011;12510;56.468;-3.004;2022-11-15T17:22:48;2.08;;;1.38;;
24389;SDS011;12510;56.468;-3.004;2022-11-15T17:25:15;4.15;;;2.60;;
24389;SDS011;12510;56.468;-3.004;2022-11-15T17:27:42;1.42;;;1.33;;
24389;SDS011;12510;56.468;-3.004;2022-11-15T17:30:09;11.05;;;10.20;;
24389;SDS011;12510;56.468;-3.004;2022-11-15T17:32:38;1.38;;;1.27;;
24389;SDS011;12510;56.468;-3.004;2022-11-15T17:35:04;9.27;;;1.92;;
24389;SDS011;12510;56.468;-3.004;2022-11-15T17:37:32;1.40;;;1.30;;
24389;SDS011;12510;56.468;-3.004;2022-11-15T17:39:59;1.75;;;1.25;;
24389;SDS011;12510;56.468;-3.004;2022-11-15T17:42:26;1.60;;;1.45;;
24389;SDS011;12510;56.468;-3.004;2022-11-15T17:44:52;1.77;;;1.52;;
24389;SDS011;12510;56.468;-3.004;2022-11-15T17:47:19;1.10;;;1.00;;
24389;SDS011;12510;56.468;-3.004;2022-11-15T17:49:45;1.35;;;1.25;;
24389;SDS011;12510;56.468;-3.004;2022-11-15T17:52:11;1.48;;;1.23;;
24389;SDS011;12510;56.468;-3.004;2022-11-15T17:54:38;0.80;;;0.80;;